createdAt,value
2023-07-14T00:00:48.744Z,497.64
2023-07-14T00:01:42.500Z,498.76
2023-07-14T00:02:42.497Z,499.13
2023-07-14T00:03:42.494Z,498.76
2023-07-14T00:04:42.529Z,499.87
2023-07-14T00:05:42.409Z,501.37
2023-07-14T00:06:48.673Z,500.25
2023-07-14T00:07:42.380Z,498.76
2023-07-14T00:08:42.402Z,501.37
2023-07-14T00:09:42.453Z,498.76
2023-07-14T00:10:42.377Z,501.37
2023-07-14T00:11:48.631Z,500.25
2023-07-14T00:12:42.357Z,499.87
2023-07-14T00:13:42.311Z,497.64
2023-07-14T00:14:42.335Z,502.50
2023-07-14T00:15:42.336Z,499.87
2023-07-14T00:16:48.597Z,497.27
2023-07-14T00:17:42.304Z,497.64
2023-07-14T00:18:42.228Z,497.64
2023-07-14T00:19:42.212Z,501.75
2023-07-14T00:20:42.262Z,496.90
2023-07-14T00:21:48.422Z,496.54
2023-07-14T00:22:43.100Z,497.64
2023-07-14T00:23:42.198Z,495.80
2023-07-14T00:24:42.170Z,496.54
2023-07-14T00:25:42.145Z,496.90
2023-07-14T00:26:48.534Z,496.54
2023-07-14T00:27:42.124Z,493.24
2023-07-14T00:28:42.117Z,496.54
2023-07-14T00:29:42.087Z,494.70
2023-07-14T00:30:42.131Z,498.01
2023-07-14T00:31:42.318Z,495.43
2023-07-14T00:32:48.389Z,493.97
2023-07-14T00:33:42.060Z,494.33
2023-07-14T00:34:42.055Z,495.43
2023-07-14T00:35:42.023Z,496.54
2023-07-14T00:36:42.036Z,493.97
2023-07-14T00:37:42.058Z,496.17
2023-07-14T00:38:48.255Z,493.24
2023-07-14T00:39:41.965Z,493.97
2023-07-14T00:40:42.037Z,495.80
2023-07-14T00:41:41.949Z,491.43
2023-07-14T00:42:42.043Z,497.64
2023-07-14T00:43:41.962Z,493.97
2023-07-14T00:44:48.222Z,494.70
2023-07-14T00:45:43.379Z,493.24
2023-07-14T00:46:42.022Z,492.15
2023-07-14T00:47:42.039Z,492.52
2023-07-14T00:48:41.888Z,491.79
2023-07-14T00:49:41.933Z,496.54
2023-07-14T00:50:48.102Z,488.21
2023-07-14T00:51:41.871Z,492.88
2023-07-14T00:52:41.778Z,491.43
2023-07-14T00:53:41.942Z,491.79
2023-07-14T00:54:41.887Z,496.90
2023-07-14T00:55:41.750Z,492.15
2023-07-14T00:56:48.037Z,495.80
2023-07-14T00:57:41.712Z,491.43
2023-07-14T00:58:41.777Z,489.63
2023-07-14T00:59:41.921Z,491.07
2023-07-14T01:00:41.678Z,493.61
2023-07-14T01:01:47.921Z,489.99
2023-07-14T01:02:41.794Z,491.07
2023-07-14T01:03:41.789Z,489.99
2023-07-14T01:04:41.679Z,489.99
2023-07-14T01:05:41.635Z,488.92
2023-07-14T01:06:41.640Z,491.43
2023-07-14T01:07:47.912Z,492.88
2023-07-14T01:08:41.599Z,488.92
2023-07-14T01:09:41.607Z,489.99
2023-07-14T01:10:41.579Z,489.63
2023-07-14T01:11:41.540Z,490.71
2023-07-14T01:12:41.546Z,489.28
2023-07-14T01:13:47.862Z,488.21
2023-07-14T01:14:41.504Z,489.99
2023-07-14T01:15:41.588Z,489.99
2023-07-14T01:16:41.537Z,489.63
2023-07-14T01:17:42.426Z,490.71
2023-07-14T01:18:41.453Z,489.63
2023-07-14T01:19:47.696Z,490.35
2023-07-14T01:20:41.440Z,490.71
2023-07-14T01:21:41.435Z,490.71
2023-07-14T01:22:41.470Z,491.43
2023-07-14T01:23:41.387Z,488.21
2023-07-14T01:24:41.424Z,490.71
2023-07-14T01:25:47.608Z,490.71
2023-07-14T01:26:42.290Z,491.07
2023-07-14T01:27:41.343Z,487.49
2023-07-14T01:28:41.319Z,488.92
2023-07-14T01:29:41.344Z,487.85
2023-07-14T01:30:41.290Z,492.52
2023-07-14T01:31:47.602Z,490.71
2023-07-14T01:32:41.351Z,494.70
2023-07-14T01:33:41.277Z,491.07
2023-07-14T01:34:41.244Z,493.97
2023-07-14T01:35:41.261Z,493.24
2023-07-14T01:36:47.472Z,496.17
2023-07-14T01:37:41.261Z,495.07
2023-07-14T01:38:41.193Z,496.54
2023-07-14T01:39:41.177Z,496.17
2023-07-14T01:40:41.214Z,493.24
2023-07-14T01:41:47.438Z,491.43
2023-07-14T01:42:41.162Z,498.01
2023-07-14T01:43:41.130Z,497.64
2023-07-14T01:44:41.132Z,498.38
2023-07-14T01:45:41.087Z,495.80
2023-07-14T01:46:47.471Z,496.54
2023-07-14T01:47:41.138Z,495.80
2023-07-14T01:48:41.146Z,500.99
2023-07-14T01:49:41.094Z,497.64
2023-07-14T01:50:41.057Z,498.38
2023-07-14T01:51:47.341Z,497.64
2023-07-14T01:52:41.011Z,498.01
2023-07-14T01:53:41.021Z,502.12
2023-07-14T01:54:41.053Z,498.01
2023-07-14T01:55:41.070Z,498.01
2023-07-14T01:56:41.035Z,499.50
2023-07-14T01:57:47.303Z,499.13
2023-07-14T01:58:40.941Z,501.75
2023-07-14T01:59:40.978Z,497.27
2023-07-14T02:00:40.974Z,499.13
2023-07-14T02:01:40.968Z,500.25
2023-07-14T02:02:41.103Z,501.37
2023-07-14T02:03:47.201Z,498.76
2023-07-14T02:04:40.908Z,498.76
2023-07-14T02:05:40.914Z,500.62
2023-07-14T02:06:40.851Z,500.62
2023-07-14T02:07:40.857Z,504.39
2023-07-14T02:08:40.822Z,500.62
2023-07-14T02:09:47.146Z,501.37
2023-07-14T02:10:40.800Z,500.62
2023-07-14T02:11:40.777Z,500.25
2023-07-14T02:12:40.755Z,502.12
2023-07-14T02:13:40.741Z,501.37
2023-07-14T02:14:40.754Z,501.37
2023-07-14T02:15:46.960Z,502.50
2023-07-14T02:16:40.708Z,499.50
2023-07-14T02:17:40.768Z,500.25
2023-07-14T02:18:40.678Z,500.99
2023-07-14T02:19:40.692Z,501.37
2023-07-14T02:20:40.689Z,502.12
2023-07-14T02:21:46.905Z,507.07
2023-07-14T02:22:40.728Z,499.13
2023-07-14T02:23:40.648Z,504.39
2023-07-14T02:24:40.620Z,502.50
2023-07-14T02:25:40.588Z,502.12
2023-07-14T02:26:40.612Z,500.62
2023-07-14T02:27:46.895Z,502.12
2023-07-14T02:28:40.637Z,502.12
2023-07-14T02:29:40.559Z,503.26
2023-07-14T02:30:40.577Z,503.26
2023-07-14T02:31:40.562Z,503.63
2023-07-14T02:32:40.549Z,502.88
2023-07-14T02:33:46.819Z,502.12
2023-07-14T02:34:40.503Z,502.88
2023-07-14T02:35:40.528Z,502.12
2023-07-14T02:36:40.479Z,500.99
2023-07-14T02:37:40.460Z,503.63
2023-07-14T02:38:40.499Z,502.50
2023-07-14T02:39:46.640Z,504.01
2023-07-14T02:40:40.401Z,503.26
2023-07-14T02:41:40.384Z,505.15
2023-07-14T02:42:40.410Z,502.50
2023-07-14T02:43:40.385Z,504.39
2023-07-14T02:44:40.343Z,502.88
2023-07-14T02:45:46.604Z,504.77
2023-07-14T02:46:40.372Z,503.63
2023-07-14T02:47:40.309Z,505.15
2023-07-14T02:48:40.306Z,504.39
2023-07-14T02:49:40.292Z,500.25
2023-07-14T02:50:46.559Z,503.63
2023-07-14T02:51:40.259Z,504.77
2023-07-14T02:52:40.236Z,503.26
2023-07-14T02:53:40.316Z,505.92
2023-07-14T02:54:40.238Z,504.01
2023-07-14T02:55:40.369Z,505.92
2023-07-14T02:56:46.437Z,505.92
2023-07-14T02:57:40.198Z,506.68
2023-07-14T02:58:40.220Z,506.30
2023-07-14T02:59:40.173Z,505.15
2023-07-14T03:00:40.187Z,507.07
2023-07-14T03:01:46.438Z,507.45
2023-07-14T03:02:40.254Z,508.22
2023-07-14T03:03:40.174Z,509.00
2023-07-14T03:04:40.103Z,507.07
2023-07-14T03:05:40.092Z,508.22
2023-07-14T03:06:47.904Z,510.94
2023-07-14T03:07:40.077Z,511.33
2023-07-14T03:08:40.125Z,512.11
2023-07-14T03:09:40.033Z,509.38
2023-07-14T03:10:40.076Z,508.22
2023-07-14T03:11:46.247Z,508.61
2023-07-14T03:12:39.977Z,509.77
2023-07-14T03:13:39.967Z,512.50
2023-07-14T03:14:40.015Z,512.11
2023-07-14T03:15:39.947Z,509.38
2023-07-14T03:16:46.270Z,510.16
2023-07-14T03:17:40.015Z,508.22
2023-07-14T03:18:39.943Z,511.33
2023-07-14T03:19:39.929Z,513.29
2023-07-14T03:20:39.955Z,509.00
2023-07-14T03:21:39.912Z,510.55
2023-07-14T03:22:46.208Z,509.77
2023-07-14T03:23:39.853Z,509.00
2023-07-14T03:24:39.841Z,510.16
2023-07-14T03:25:39.838Z,508.61
2023-07-14T03:26:39.860Z,506.30
2023-07-14T03:27:39.857Z,506.68
2023-07-14T03:28:46.032Z,507.45
2023-07-14T03:29:39.793Z,506.68
2023-07-14T03:30:39.763Z,506.68
2023-07-14T03:31:39.852Z,509.77
2023-07-14T03:32:39.790Z,506.30
2023-07-14T03:33:39.773Z,508.61
2023-07-14T03:34:45.959Z,504.77
2023-07-14T03:35:39.682Z,504.39
2023-07-14T03:36:39.724Z,505.15
2023-07-14T03:37:39.751Z,507.45
2023-07-14T03:38:39.648Z,511.33
2023-07-14T03:39:45.943Z,505.54
2023-07-14T03:40:39.668Z,503.63
2023-07-14T03:41:39.602Z,507.07
2023-07-14T03:42:39.615Z,504.01
2023-07-14T03:43:39.633Z,505.15
2023-07-14T03:44:45.904Z,507.84
2023-07-14T03:45:39.543Z,503.26
2023-07-14T03:46:39.631Z,504.39
2023-07-14T03:47:39.579Z,504.01
2023-07-14T03:48:40.434Z,505.92
2023-07-14T03:49:45.884Z,503.63
2023-07-14T03:50:39.545Z,503.63
2023-07-14T03:51:39.564Z,503.63
2023-07-14T03:52:39.460Z,508.61
2023-07-14T03:53:39.539Z,501.37
2023-07-14T03:54:39.501Z,504.01
2023-07-14T03:55:45.693Z,503.63
2023-07-14T03:56:39.451Z,502.12
2023-07-14T03:57:52.949Z,501.75
2023-07-14T03:58:40.434Z,504.39
2023-07-14T03:59:39.387Z,502.12
2023-07-14T04:00:45.634Z,503.26
2023-07-14T04:01:39.401Z,503.63
2023-07-14T04:02:39.378Z,502.12
2023-07-14T04:03:39.362Z,502.50
2023-07-14T04:04:39.340Z,502.50
2023-07-14T04:05:45.561Z,503.63
2023-07-14T04:06:39.312Z,504.39
2023-07-14T04:07:39.368Z,504.77
2023-07-14T04:08:39.298Z,503.26
2023-07-14T04:09:39.281Z,501.75
2023-07-14T04:10:45.567Z,502.12
2023-07-14T04:11:39.231Z,500.99
2023-07-14T04:12:39.233Z,502.12
2023-07-14T04:13:39.244Z,504.01
2023-07-14T04:14:39.236Z,504.01
2023-07-14T04:15:45.440Z,503.63
2023-07-14T04:16:39.326Z,503.26
2023-07-14T04:17:39.145Z,501.37
2023-07-14T04:18:39.171Z,502.88
2023-07-14T04:19:39.160Z,503.26
2023-07-14T04:20:45.411Z,504.01
2023-07-14T04:21:39.177Z,502.50
2023-07-14T04:22:40.180Z,503.63
2023-07-14T04:23:43.058Z,504.39
2023-07-14T04:24:39.069Z,502.88
2023-07-14T04:25:39.115Z,502.88
2023-07-14T04:26:45.298Z,505.92
2023-07-14T04:27:39.016Z,503.26
2023-07-14T04:28:39.035Z,505.15
2023-07-14T04:29:39.121Z,504.01
2023-07-14T04:30:39.105Z,505.54
2023-07-14T04:31:39.020Z,506.68
2023-07-14T04:32:45.269Z,504.01
2023-07-14T04:33:39.022Z,505.15
2023-07-14T04:34:38.935Z,503.63
2023-07-14T04:35:38.953Z,505.92
2023-07-14T04:36:38.946Z,503.26
2023-07-14T04:37:38.920Z,504.01
2023-07-14T04:38:45.135Z,505.54
2023-07-14T04:39:38.890Z,504.39
2023-07-14T04:40:38.937Z,504.77
2023-07-14T04:41:39.081Z,503.63
2023-07-14T04:42:38.867Z,503.26
2023-07-14T04:43:38.823Z,502.88
2023-07-14T04:44:45.096Z,502.88
2023-07-14T04:45:38.937Z,503.63
2023-07-14T04:46:38.976Z,503.63
2023-07-14T04:47:38.846Z,502.88
2023-07-14T04:48:38.798Z,503.26
2023-07-14T04:49:44.985Z,501.37
2023-07-14T04:50:38.853Z,501.37
2023-07-14T04:51:38.774Z,500.99
2023-07-14T04:52:38.744Z,501.75
2023-07-14T04:53:38.767Z,503.63
2023-07-14T04:54:38.672Z,507.45
2023-07-14T04:55:44.921Z,504.01
2023-07-14T04:56:38.693Z,501.75
2023-07-14T04:57:38.616Z,503.63
2023-07-14T04:58:38.661Z,502.12
2023-07-14T04:59:38.593Z,504.77
2023-07-14T05:00:44.877Z,503.63
2023-07-14T05:01:38.672Z,500.99
2023-07-14T05:02:38.653Z,505.15
2023-07-14T05:03:38.680Z,506.68
2023-07-14T05:04:45.298Z,499.87
2023-07-14T05:05:46.262Z,502.50
2023-07-14T05:06:38.551Z,501.37
2023-07-14T05:07:38.518Z,502.12
2023-07-14T05:08:38.493Z,500.25
2023-07-14T05:09:38.540Z,499.13
2023-07-14T05:10:44.730Z,504.77
2023-07-14T05:11:38.516Z,500.25
2023-07-14T05:12:38.457Z,498.01
2023-07-14T05:13:38.435Z,499.50
2023-07-14T05:14:39.598Z,496.90
2023-07-14T05:15:47.798Z,498.76
2023-07-14T05:16:38.429Z,499.87
2023-07-14T05:17:38.383Z,499.87
2023-07-14T05:18:38.382Z,499.87
2023-07-14T05:19:38.363Z,499.13
2023-07-14T05:20:38.356Z,496.54
2023-07-14T05:21:44.602Z,498.01
2023-07-14T05:22:38.376Z,497.27
2023-07-14T05:23:38.323Z,499.50
2023-07-14T05:24:38.333Z,495.07
2023-07-14T05:25:38.294Z,495.07
2023-07-14T05:26:38.259Z,496.90
2023-07-14T05:27:44.546Z,494.70
2023-07-14T05:28:38.331Z,497.27
2023-07-14T05:29:38.306Z,493.97
2023-07-14T05:30:38.213Z,494.33
2023-07-14T05:31:38.204Z,491.43
2023-07-14T05:32:38.296Z,495.80
2023-07-14T05:33:44.418Z,496.17
2023-07-14T05:34:38.158Z,493.97
2023-07-14T05:35:38.155Z,492.52
2023-07-14T05:36:38.139Z,491.79
2023-07-14T05:37:38.160Z,489.99
2023-07-14T05:38:44.329Z,488.21
2023-07-14T05:39:38.142Z,489.63
2023-07-14T05:40:51.231Z,488.92
2023-07-14T05:41:39.586Z,489.63
2023-07-14T05:42:38.058Z,486.79
2023-07-14T05:43:38.102Z,487.14
2023-07-14T05:44:44.312Z,487.14
2023-07-14T05:45:38.019Z,487.49
2023-07-14T05:46:38.043Z,486.79
2023-07-14T05:47:38.132Z,485.73
2023-07-14T05:48:38.022Z,488.56
2023-07-14T05:49:37.999Z,482.23
2023-07-14T05:50:44.190Z,482.23
2023-07-14T05:51:37.936Z,484.67
2023-07-14T05:52:37.936Z,484.67
2023-07-14T05:53:37.915Z,483.97
2023-07-14T05:54:37.910Z,483.97
2023-07-14T05:55:37.898Z,480.49
2023-07-14T05:56:45.052Z,482.57
2023-07-14T05:57:37.861Z,480.49
2023-07-14T05:58:37.868Z,481.88
2023-07-14T05:59:37.913Z,482.57
2023-07-14T06:00:39.682Z,478.78
2023-07-14T06:01:37.916Z,479.46
2023-07-14T06:02:44.141Z,479.12
2023-07-14T06:03:37.920Z,480.84
2023-07-14T06:04:37.869Z,480.15
2023-07-14T06:05:37.823Z,478.43
2023-07-14T06:06:38.004Z,478.78
2023-07-14T06:07:44.090Z,475.04
2023-07-14T06:08:37.774Z,478.43
2023-07-14T06:09:37.746Z,477.75
2023-07-14T06:10:37.764Z,476.39
2023-07-14T06:11:37.729Z,474.70
2023-07-14T06:12:44.034Z,473.02
2023-07-14T06:13:37.781Z,473.69
2023-07-14T06:14:37.666Z,474.37
2023-07-14T06:15:37.665Z,474.70
2023-07-14T06:16:37.813Z,471.69
2023-07-14T06:17:37.751Z,472.02
2023-07-14T06:18:43.887Z,471.36
2023-07-14T06:19:37.585Z,470.04
2023-07-14T06:20:37.580Z,473.69
2023-07-14T06:21:37.546Z,472.36
2023-07-14T06:22:37.643Z,470.36
2023-07-14T06:23:43.814Z,467.41
2023-07-14T06:24:37.690Z,468.39
2023-07-14T06:25:37.528Z,467.08
2023-07-14T06:26:38.574Z,464.81
2023-07-14T06:27:37.493Z,465.78
2023-07-14T06:28:37.591Z,463.52
2023-07-14T06:29:43.684Z,462.88
2023-07-14T06:30:37.508Z,464.49
2023-07-14T06:31:37.409Z,462.88
2023-07-14T06:32:37.470Z,463.85
2023-07-14T06:33:37.458Z,461.92
2023-07-14T06:34:43.776Z,460.34
2023-07-14T06:35:37.407Z,459.70
2023-07-14T06:36:37.391Z,459.39
2023-07-14T06:37:37.571Z,459.39
2023-07-14T06:38:37.391Z,456.88
2023-07-14T06:39:43.689Z,455.64
2023-07-14T06:40:37.412Z,456.26
2023-07-14T06:41:37.351Z,455.33
2023-07-14T06:42:37.319Z,455.64
2023-07-14T06:43:37.275Z,452.86
2023-07-14T06:44:43.552Z,452.56
2023-07-14T06:45:37.222Z,451.95
2023-07-14T06:46:37.257Z,450.12
2023-07-14T06:47:37.308Z,449.52
2023-07-14T06:48:37.252Z,449.52
2023-07-14T06:49:43.461Z,447.71
2023-07-14T06:50:37.255Z,448.31
2023-07-14T06:51:37.195Z,446.52
2023-07-14T06:52:37.169Z,445.92
2023-07-14T06:53:37.159Z,446.52
2023-07-14T06:54:38.831Z,443.85
2023-07-14T06:55:43.735Z,446.22
2023-07-14T06:56:37.127Z,443.56
2023-07-14T06:57:37.130Z,445.63
2023-07-14T06:58:37.144Z,441.51
2023-07-14T06:59:37.077Z,443.27
2023-07-14T07:00:43.396Z,442.39
2023-07-14T07:01:37.118Z,442.97
2023-07-14T07:02:37.169Z,442.09
2023-07-14T07:03:37.141Z,440.06
2023-07-14T07:04:37.043Z,439.48
2023-07-14T07:05:37.135Z,439.48
2023-07-14T07:06:43.363Z,436.90
2023-07-14T07:07:36.974Z,436.90
2023-07-14T07:08:36.965Z,439.48
2023-07-14T07:09:36.962Z,435.48
2023-07-14T07:10:36.985Z,433.79
2023-07-14T07:11:36.989Z,436.05
2023-07-14T07:12:43.312Z,433.79
2023-07-14T07:13:36.925Z,434.07
2023-07-14T07:14:36.895Z,435.20
2023-07-14T07:15:36.992Z,430.44
2023-07-14T07:16:36.921Z,432.94
2023-07-14T07:17:37.591Z,432.10
2023-07-14T07:18:43.237Z,431.55
2023-07-14T07:19:36.787Z,432.10
2023-07-14T07:20:36.817Z,433.79
2023-07-14T07:21:36.856Z,430.99
2023-07-14T07:22:36.882Z,429.88
2023-07-14T07:23:36.946Z,427.96
2023-07-14T07:24:43.256Z,427.69
2023-07-14T07:25:36.733Z,426.87
2023-07-14T07:26:37.861Z,424.97
2023-07-14T07:27:36.806Z,427.14
2023-07-14T07:28:36.878Z,423.63
2023-07-14T07:29:36.714Z,425.24
2023-07-14T07:30:42.967Z,421.23
2023-07-14T07:31:36.696Z,423.89
2023-07-14T07:32:36.676Z,423.36
2023-07-14T07:33:36.725Z,422.56
2023-07-14T07:34:36.650Z,419.91
2023-07-14T07:35:42.893Z,420.17
2023-07-14T07:36:36.579Z,419.91
2023-07-14T07:37:36.627Z,419.12
2023-07-14T07:38:36.568Z,417.55
2023-07-14T07:39:36.630Z,417.03
2023-07-14T07:40:36.747Z,414.70
2023-07-14T07:41:45.775Z,418.07
2023-07-14T07:42:36.600Z,416.25
2023-07-14T07:43:36.555Z,413.68
2023-07-14T07:44:36.482Z,414.96
2023-07-14T07:45:36.565Z,413.42
2023-07-14T07:46:36.506Z,411.39
2023-07-14T07:47:43.005Z,415.73
2023-07-14T07:48:36.611Z,412.15
2023-07-14T07:49:36.560Z,414.45
2023-07-14T07:50:36.504Z,408.38
2023-07-14T07:51:36.395Z,410.88
2023-07-14T07:52:42.690Z,410.13
2023-07-14T07:53:36.380Z,405.90
2023-07-14T07:54:36.363Z,405.65
2023-07-14T07:55:36.345Z,406.89
2023-07-14T07:56:36.430Z,404.92
2023-07-14T07:57:42.641Z,402.97
2023-07-14T07:58:36.368Z,402.24
2023-07-14T07:59:36.422Z,401.52
2023-07-14T08:00:36.303Z,401.04
2023-07-14T08:01:36.411Z,400.56
2023-07-14T08:02:42.760Z,399.60
2023-07-14T08:03:36.622Z,399.60
2023-07-14T08:04:36.323Z,397.70
2023-07-14T08:05:36.502Z,396.99
2023-07-14T08:06:36.272Z,398.89
2023-07-14T08:07:42.533Z,396.76
2023-07-14T08:08:36.253Z,395.35
2023-07-14T08:09:36.192Z,393.49
2023-07-14T08:10:36.167Z,394.42
2023-07-14T08:11:36.176Z,393.03
2023-07-14T08:12:36.147Z,392.57
2023-07-14T08:13:42.395Z,394.42
2023-07-14T08:14:36.088Z,393.49
2023-07-14T08:15:36.656Z,392.80
2023-07-14T08:17:34.084Z,566.75
2023-07-14T08:18:40.253Z,499.50
2023-07-14T08:19:34.027Z,469.05
2023-07-14T08:20:33.988Z,447.71
2023-07-14T08:21:34.036Z,435.48
2023-07-14T08:22:34.006Z,427.96
2023-07-14T08:23:33.985Z,421.76
2023-07-14T08:24:40.291Z,415.48
2023-07-14T08:25:34.202Z,412.15
2023-07-14T08:26:33.950Z,407.14
2023-07-14T08:27:34.073Z,405.16
2023-07-14T08:28:33.929Z,401.04
2023-07-14T08:29:40.111Z,397.46
2023-07-14T08:30:33.877Z,397.23
2023-07-14T08:31:33.961Z,394.89
2023-07-14T08:32:33.860Z,392.57
2023-07-14T08:33:33.879Z,390.28
2023-07-14T08:34:40.049Z,391.19
2023-07-14T08:35:33.844Z,385.11
2023-07-14T08:36:33.827Z,386.23
2023-07-14T08:37:33.871Z,387.57
2023-07-14T08:38:33.887Z,382.47
2023-07-14T08:39:33.742Z,382.04
2023-07-14T08:40:39.989Z,383.13
2023-07-14T08:41:33.740Z,382.91
2023-07-14T08:42:33.687Z,377.43
2023-07-14T08:43:33.786Z,375.28
2023-07-14T08:44:33.956Z,371.05
2023-07-14T08:45:33.692Z,371.89
2023-07-14T08:46:40.063Z,372.73
2023-07-14T08:47:33.718Z,373.15
2023-07-14T08:48:34.364Z,368.56
2023-07-14T08:49:33.657Z,368.56
2023-07-14T08:50:33.716Z,365.29
2023-07-14T08:51:39.920Z,366.10
2023-07-14T08:52:33.583Z,364.48
2023-07-14T08:53:33.575Z,359.31
2023-07-14T08:54:33.537Z,360.49
2023-07-14T08:55:33.541Z,359.70
2023-07-14T08:56:33.553Z,358.14
2023-07-14T08:57:39.800Z,358.14
2023-07-14T08:58:33.511Z,355.43
2023-07-14T08:59:33.497Z,357.36
2023-07-14T09:00:34.431Z,357.36
2023-07-14T09:01:33.511Z,354.67
2023-07-14T09:02:39.785Z,353.52
2023-07-14T09:03:33.447Z,353.15
2023-07-14T09:04:33.704Z,351.64
2023-07-14T09:05:33.492Z,350.52
2023-07-14T09:06:33.401Z,349.40
2023-07-14T09:07:33.364Z,350.14
2023-07-14T09:08:39.708Z,347.92
2023-07-14T09:09:33.414Z,347.92
2023-07-14T09:10:33.493Z,346.10
2023-07-14T09:11:33.343Z,349.03
2023-07-14T09:12:33.486Z,342.85
2023-07-14T09:13:33.373Z,343.57
2023-07-14T09:14:39.593Z,343.93
2023-07-14T09:15:33.323Z,342.50
2023-07-14T09:16:33.647Z,342.50
2023-07-14T09:17:33.351Z,340.72
2023-07-14T09:18:33.319Z,338.97
2023-07-14T09:19:33.248Z,337.93
2023-07-14T09:20:39.503Z,338.97
2023-07-14T09:21:33.366Z,337.58
2023-07-14T09:22:33.229Z,336.89
2023-07-14T09:23:33.175Z,333.14
2023-07-14T09:24:33.199Z,334.83
2023-07-14T09:25:33.225Z,333.48
2023-07-14T09:26:39.455Z,333.14
2023-07-14T09:27:33.201Z,332.80
2023-07-14T09:28:33.091Z,333.14
2023-07-14T09:29:33.130Z,332.13
2023-07-14T09:30:33.380Z,331.47
2023-07-14T09:31:33.213Z,330.80
2023-07-14T09:32:39.427Z,330.80
2023-07-14T09:33:33.175Z,328.49
2023-07-14T09:34:33.079Z,330.47
2023-07-14T09:35:33.111Z,328.16
2023-07-14T09:36:33.033Z,330.47
2023-07-14T09:37:39.283Z,328.49
2023-07-14T09:38:33.139Z,329.48
2023-07-14T09:39:33.010Z,328.49
2023-07-14T09:40:33.029Z,325.57
2023-07-14T09:41:32.959Z,326.86
2023-07-14T09:42:33.282Z,325.57
2023-07-14T09:43:39.274Z,324.92
2023-07-14T09:44:32.915Z,324.29
2023-07-14T09:45:33.076Z,324.61
2023-07-14T09:46:33.025Z,323.33
2023-07-14T09:47:32.969Z,323.01
2023-07-14T09:48:32.921Z,321.75
2023-07-14T09:49:39.314Z,323.01
2023-07-14T09:50:32.915Z,323.33
2023-07-14T09:51:32.870Z,323.01
2023-07-14T09:52:32.876Z,321.12
2023-07-14T09:53:32.810Z,321.75
2023-07-14T09:54:32.900Z,321.75
2023-07-14T09:55:39.055Z,320.81
2023-07-14T09:56:32.806Z,319.57
2023-07-14T09:57:40.460Z,319.88
2023-07-14T09:58:34.292Z,319.88
2023-07-14T09:59:32.780Z,320.81
2023-07-14T10:00:39.066Z,319.88
2023-07-14T10:01:32.749Z,319.57
2023-07-14T10:02:32.732Z,318.64
2023-07-14T10:03:43.431Z,318.02
2023-07-14T10:04:34.195Z,318.95
2023-07-14T10:05:54.889Z,316.80
2023-07-14T10:06:32.672Z,317.72
2023-07-14T10:07:32.691Z,314.98
2023-07-14T10:08:32.704Z,315.89
2023-07-14T10:09:32.639Z,314.38
2023-07-14T10:10:32.606Z,312.00
2023-07-14T10:11:39.023Z,311.41
2023-07-14T10:12:33.536Z,310.23
2023-07-14T10:13:32.656Z,309.65
2023-07-14T10:14:32.613Z,307.63
2023-07-14T10:15:32.565Z,308.78
2023-07-14T10:16:32.641Z,304.78
2023-07-14T10:17:38.866Z,304.50
2023-07-14T10:18:32.632Z,304.50
2023-07-14T10:19:32.518Z,305.34
2023-07-14T10:20:33.422Z,302.82
2023-07-14T10:21:32.575Z,304.22
2023-07-14T10:22:38.894Z,302.54
2023-07-14T10:23:32.501Z,301.98
2023-07-14T10:24:32.492Z,301.71
2023-07-14T10:25:32.464Z,301.16
2023-07-14T10:26:32.508Z,299.79
2023-07-14T10:27:32.515Z,301.16
2023-07-14T10:28:38.662Z,300.06
2023-07-14T10:29:32.401Z,299.24
2023-07-14T10:30:32.474Z,298.70
2023-07-14T10:31:32.387Z,298.16
2023-07-14T10:32:32.503Z,298.97
2023-07-14T10:33:32.571Z,298.16
2023-07-14T10:34:39.609Z,296.81
2023-07-14T10:35:32.343Z,297.08
2023-07-14T10:36:32.285Z,296.01
2023-07-14T10:37:32.391Z,297.89
2023-07-14T10:38:32.273Z,296.55
2023-07-14T10:39:32.339Z,295.48
2023-07-14T10:40:38.518Z,294.95
2023-07-14T10:41:32.260Z,293.64
2023-07-14T10:42:32.206Z,293.11
2023-07-14T10:43:32.258Z,294.16
2023-07-14T10:44:32.280Z,292.08
2023-07-14T10:45:38.518Z,294.16
2023-07-14T10:46:32.357Z,293.64
2023-07-14T10:47:32.212Z,292.08
2023-07-14T10:48:32.225Z,291.56
2023-07-14T10:49:32.846Z,290.79
2023-07-14T10:51:44.539Z,407.14
2023-07-14T10:52:44.613Z,359.70
2023-07-14T10:53:44.518Z,337.23
2023-07-14T10:54:44.530Z,324.29
2023-07-14T10:55:50.813Z,313.18
2023-07-14T10:56:44.466Z,308.20
2023-07-14T10:57:44.491Z,303.93
2023-07-14T10:58:44.458Z,297.89
2023-07-14T10:59:44.448Z,292.59
2023-07-14T11:00:50.686Z,285.00
2023-07-14T11:01:44.500Z,279.20
2023-07-14T11:02:44.555Z,274.32
2023-07-14T11:03:44.459Z,263.77
2023-07-14T11:04:44.454Z,252.64
2023-07-14T11:05:50.706Z,244.94
2023-07-14T11:06:44.383Z,237.35
2023-07-14T11:07:44.371Z,226.73
2023-07-14T11:08:44.350Z,219.04
2023-07-14T11:09:44.316Z,211.71
2023-07-14T11:10:44.322Z,206.41
2023-07-14T11:11:50.543Z,198.57
2023-07-14T11:12:47.655Z,193.32
2023-07-14T11:13:44.309Z,188.89
2023-07-14T11:14:44.273Z,185.69
2023-07-14T11:15:44.312Z,186.11
2023-07-14T11:16:50.560Z,188.67
2023-07-14T11:17:44.475Z,191.63
2023-07-14T11:18:44.252Z,193.10
2023-07-14T11:19:46.970Z,190.86
2023-07-14T11:20:44.275Z,188.13
2023-07-14T11:21:44.186Z,186.43
2023-07-14T11:22:50.541Z,182.66
2023-07-14T11:23:44.252Z,178.38
2023-07-14T11:24:44.179Z,176.87
2023-07-14T11:25:44.195Z,170.40
2023-07-14T11:26:44.170Z,165.84
2023-07-14T11:27:44.233Z,160.44
2023-07-14T11:28:51.392Z,154.52
2023-07-14T11:29:44.121Z,148.89
2023-07-14T11:30:44.119Z,144.02
2023-07-14T11:31:44.190Z,138.66
2023-07-14T11:32:44.139Z,133.57
2023-07-14T11:33:50.427Z,128.75
2023-07-14T11:34:44.087Z,122.71
2023-07-14T11:35:44.059Z,117.54
2023-07-14T11:36:44.085Z,112.49
2023-07-14T11:37:44.040Z,107.65
2023-07-14T11:38:50.351Z,103.59
2023-07-14T11:39:44.170Z,100.00
2023-07-14T11:40:44.028Z,96.99
2023-07-14T11:41:44.057Z,95.14
2023-07-14T11:42:44.054Z,92.00
2023-07-14T11:43:43.980Z,89.74
2023-07-14T11:44:50.242Z,87.95
2023-07-14T11:45:44.133Z,85.17
2023-07-14T11:46:43.979Z,82.73
2023-07-14T11:47:43.988Z,80.66
2023-07-14T11:48:43.956Z,80.04
2023-07-14T11:49:50.200Z,77.81
2023-07-14T11:50:44.043Z,76.05
2023-07-14T11:51:43.881Z,74.82
2023-07-14T11:52:44.242Z,73.83
2023-07-14T11:53:43.978Z,72.43
2023-07-14T11:54:50.211Z,70.36
2023-07-14T11:55:44.880Z,69.66
2023-07-14T11:56:43.872Z,70.54
2023-07-14T11:57:44.063Z,71.44
2023-07-14T11:58:43.864Z,72.68
2023-07-14T11:59:43.810Z,75.09
2023-07-14T12:00:50.086Z,76.74
2023-07-14T12:01:43.927Z,79.06
2023-07-14T12:02:43.890Z,81.92
2023-07-14T12:03:43.907Z,83.39
2023-07-14T12:04:43.834Z,82.73
2023-07-14T12:05:50.072Z,81.92
2023-07-14T12:06:43.848Z,81.21
2023-07-14T12:07:43.769Z,81.29
2023-07-14T12:08:44.696Z,83.39
2023-07-14T12:09:43.749Z,84.23
2023-07-14T12:10:43.768Z,86.58
2023-07-14T12:11:50.039Z,88.79
2023-07-14T12:12:43.721Z,89.35
2023-07-14T12:13:43.815Z,90.22
2023-07-14T12:15:44.280Z,87.40
2023-07-14T12:16:50.011Z,85.61
2023-07-14T12:17:43.811Z,83.56
2023-07-14T12:18:43.703Z,82.57
2023-07-14T12:19:43.729Z,83.56
2023-07-14T12:20:43.692Z,84.66
2023-07-14T12:21:43.627Z,82.65
2023-07-14T12:22:49.897Z,81.13
2023-07-14T12:23:43.716Z,79.82
2023-07-14T12:24:43.678Z,77.74
2023-07-14T12:25:43.591Z,75.50
2023-07-14T12:26:43.573Z,73.19
2023-07-14T12:27:43.561Z,71.50
2023-07-14T12:28:52.408Z,69.89
2023-07-14T12:29:57.769Z,67.96
2023-07-14T12:30:45.696Z,67.42
2023-07-14T12:31:43.701Z,68.07
2023-07-14T12:32:43.582Z,68.02
2023-07-14T12:33:43.515Z,68.97